createdAt,value
2023-02-28T00:01:28.975Z,65.85
2023-02-28T00:06:32.817Z,65.82
2023-02-28T00:11:36.536Z,65.91
2023-02-28T00:16:39.984Z,66.06
2023-02-28T00:21:44.184Z,65.83
2023-02-28T00:26:47.801Z,65.76
2023-02-28T00:31:51.273Z,66.16
2023-02-28T00:36:54.964Z,66.43
2023-02-28T00:41:58.553Z,66.14
2023-02-28T00:47:02.170Z,66.20
2023-02-28T00:52:06.706Z,66.42
2023-02-28T00:57:10.226Z,66.29
2023-02-28T01:02:13.841Z,65.98
2023-02-28T01:07:17.461Z,66.21
2023-02-28T01:12:21.290Z,66.18
2023-02-28T01:17:24.903Z,66.27
2023-02-28T01:22:28.929Z,66.48
2023-02-28T01:27:32.616Z,66.66
2023-02-28T01:32:37.395Z,66.62
2023-02-28T01:37:40.907Z,66.45
2023-02-28T01:42:44.524Z,66.69
2023-02-28T01:47:52.546Z,66.99
2023-02-28T01:53:01.694Z,67.39
2023-02-28T01:58:08.101Z,67.54
2023-02-28T02:03:20.190Z,67.63
2023-02-28T02:08:30.343Z,67.73
2023-02-28T02:14:01.422Z,67.83
2023-02-28T02:19:25.722Z,67.88
2023-02-28T02:24:58.838Z,67.56
2023-02-28T02:30:18.737Z,67.57
2023-02-28T02:35:36.914Z,67.33
2023-02-28T02:40:52.081Z,67.31
2023-02-28T02:46:00.514Z,67.98
2023-02-28T02:51:13.177Z,68.22
2023-02-28T02:56:20.901Z,68.01
2023-02-28T03:01:30.528Z,68.70
2023-02-28T03:06:34.746Z,68.81
2023-02-28T03:11:40.206Z,68.76
2023-02-28T03:17:11.171Z,68.82
2023-02-28T03:22:33.425Z,68.62
2023-02-28T03:28:05.714Z,68.75
2023-02-28T03:33:14.455Z,68.64
2023-02-28T03:38:21.144Z,68.38
2023-02-28T03:43:31.115Z,68.46
2023-02-28T03:48:39.142Z,68.67
2023-02-28T03:53:55.966Z,68.54
2023-02-28T03:59:36.237Z,68.77
2023-02-28T04:04:39.963Z,68.92
2023-02-28T04:09:44.294Z,68.35
2023-02-28T04:14:47.707Z,68.21
2023-02-28T04:19:51.321Z,68.45
2023-02-28T04:24:55.673Z,68.28
2023-02-28T04:29:59.179Z,68.71
2023-02-28T04:35:03.918Z,68.57
2023-02-28T04:40:08.500Z,68.40
2023-02-28T04:45:12.524Z,68.56
2023-02-28T04:50:16.311Z,68.63
2023-02-28T04:55:19.719Z,68.69
2023-02-28T05:00:23.134Z,68.83
2023-02-28T05:05:26.683Z,68.61
2023-02-28T05:10:31.088Z,68.54
2023-02-28T05:15:35.725Z,68.21
2023-02-28T05:20:39.412Z,68.95
2023-02-28T05:25:43.169Z,68.76
2023-02-28T05:30:46.881Z,68.88
2023-02-28T05:35:50.555Z,69.19
2023-02-28T05:40:54.654Z,69.19
2023-02-28T05:45:58.186Z,69.60
2023-02-28T05:51:02.384Z,69.59
2023-02-28T05:56:06.125Z,69.68
2023-02-28T06:01:34.000Z,69.25
2023-02-28T06:06:38.257Z,69.77
2023-02-28T06:11:42.020Z,69.65
2023-02-28T06:16:45.812Z,69.69
2023-02-28T06:21:53.707Z,69.59
2023-02-28T06:26:58.862Z,69.86
2023-02-28T06:32:02.902Z,69.75
2023-02-28T06:37:06.483Z,69.86
2023-02-28T06:42:10.208Z,69.92
2023-02-28T06:47:13.620Z,69.75
2023-02-28T06:52:17.748Z,69.98
2023-02-28T06:57:21.161Z,70.06
2023-02-28T07:02:24.576Z,70.15
2023-02-28T07:07:29.182Z,70.62
2023-02-28T07:12:32.418Z,70.81
2023-02-28T07:17:35.934Z,71.26
2023-02-28T07:22:40.065Z,71.34
2023-02-28T07:27:43.989Z,71.81
2023-02-28T07:32:47.606Z,71.55
2023-02-28T07:37:51.020Z,71.73
2023-02-28T07:42:54.538Z,72.01
2023-02-28T07:47:58.051Z,72.28
2023-02-28T07:53:02.536Z,72.10
2023-02-28T07:58:06.011Z,72.24
2023-02-28T08:03:14.340Z,72.31
2023-02-28T08:08:18.168Z,72.53
2023-02-28T08:13:21.678Z,72.57
2023-02-28T08:18:25.516Z,72.43
2023-02-28T08:23:29.117Z,72.53
2023-02-28T08:28:33.162Z,72.00
2023-02-28T08:33:36.871Z,72.10
2023-02-28T08:38:40.795Z,72.26
2023-02-28T08:43:44.791Z,72.41
2023-02-28T08:48:48.342Z,72.70
2023-02-28T08:53:51.845Z,72.64
2023-02-28T08:58:57.554Z,72.48
2023-02-28T09:04:01.141Z,72.44
2023-02-28T09:09:07.715Z,72.66
2023-02-28T09:14:11.331Z,72.61
2023-02-28T09:19:15.270Z,72.52
2023-02-28T09:24:19.488Z,72.40
2023-02-28T09:29:23.016Z,72.05
2023-02-28T09:34:28.523Z,71.99
2023-02-28T09:39:33.008Z,72.06
2023-02-28T09:44:45.824Z,72.13
2023-02-28T09:49:50.277Z,71.63
2023-02-28T09:54:53.894Z,71.64
2023-02-28T10:00:18.264Z,71.34
2023-02-28T10:05:34.527Z,71.37
2023-02-28T10:10:46.827Z,71.32
2023-02-28T10:15:56.419Z,70.88
2023-02-28T10:21:02.011Z,70.85
2023-02-28T10:26:17.490Z,70.44
2023-02-28T10:31:22.266Z,70.13
2023-02-28T10:36:26.154Z,70.07
2023-02-28T10:41:35.957Z,70.06
2023-02-28T10:46:41.773Z,69.85
2023-02-28T10:51:46.075Z,69.70
2023-02-28T10:57:08.353Z,69.68
2023-02-28T11:02:37.165Z,69.26
2023-02-28T11:07:52.886Z,69.41
2023-02-28T11:13:00.779Z,68.65
2023-02-28T11:18:24.674Z,68.64
2023-02-28T11:23:32.067Z,68.31
2023-02-28T11:28:38.265Z,68.62
2023-02-28T11:33:52.610Z,68.78
2023-02-28T11:39:02.889Z,68.61
2023-02-28T11:44:34.053Z,68.15
2023-02-28T11:50:05.220Z,68.04
2023-02-28T11:55:20.817Z,68.20
2023-02-28T12:00:42.156Z,68.23
2023-02-28T12:05:51.099Z,67.99
2023-02-28T12:11:22.367Z,68.15
2023-02-28T12:16:55.680Z,67.95
2023-02-28T12:22:05.131Z,68.29
2023-02-28T12:27:13.984Z,67.84
2023-02-28T12:32:36.020Z,67.94
2023-02-28T12:37:48.243Z,67.40
2023-02-28T12:43:00.257Z,67.04
2023-02-28T12:48:07.265Z,67.14
2023-02-28T12:53:33.624Z,66.50
2023-02-28T12:58:55.962Z,66.52
2023-02-28T13:04:40.028Z,66.24
2023-02-28T13:09:54.933Z,66.08
2023-02-28T13:15:26.241Z,65.47
2023-02-28T13:20:37.672Z,65.16
2023-02-28T13:25:40.992Z,64.92
2023-02-28T13:30:54.298Z,64.73
2023-02-28T13:36:27.142Z,64.16
2023-02-28T13:41:31.043Z,63.56
2023-02-28T13:46:50.050Z,63.46
2023-02-28T13:51:54.802Z,63.40
2023-02-28T13:57:07.932Z,63.80
2023-02-28T14:02:23.217Z,62.87
2023-02-28T14:07:36.433Z,62.90
2023-02-28T14:12:56.360Z,62.58
2023-02-28T14:18:02.943Z,62.60
2023-02-28T14:23:15.496Z,62.32
2023-02-28T14:28:48.072Z,61.61
2023-02-28T14:34:25.893Z,60.30
2023-02-28T14:39:34.736Z,59.77
2023-02-28T14:44:38.247Z,59.17
2023-02-28T14:49:47.937Z,58.65
2023-02-28T14:55:01.663Z,58.66
2023-02-28T15:00:27.185Z,58.59
2023-02-28T15:05:33.984Z,58.15
2023-02-28T15:10:37.919Z,57.67
2023-02-28T15:15:51.600Z,57.12
2023-02-28T15:21:12.587Z,57.25
2023-02-28T15:26:23.767Z,55.04
2023-02-28T15:31:56.414Z,54.60
2023-02-28T15:37:00.304Z,54.50
2023-02-28T15:42:18.867Z,54.38
2023-02-28T15:47:25.055Z,54.59
2023-02-28T15:52:39.828Z,53.99
2023-02-28T15:57:43.855Z,52.46
2023-02-28T16:02:47.962Z,51.36
2023-02-28T16:07:51.506Z,50.70
2023-02-28T16:12:56.926Z,51.42
2023-02-28T16:18:02.116Z,51.50
2023-02-28T16:23:05.735Z,51.52
2023-02-28T16:28:20.827Z,51.75
2023-02-28T16:33:24.551Z,51.71
2023-02-28T16:38:28.162Z,51.79
2023-02-28T16:43:31.882Z,51.69
2023-02-28T16:48:35.419Z,51.81
2023-02-28T16:53:38.843Z,51.85
2023-02-28T16:58:42.326Z,52.15
2023-02-28T17:03:45.895Z,52.33
2023-02-28T17:08:52.948Z,52.41
2023-02-28T17:13:56.660Z,52.77
2023-02-28T17:19:04.271Z,52.88
2023-02-28T17:24:08.149Z,53.32
2023-02-28T17:29:20.745Z,53.47
2023-02-28T17:34:25.521Z,53.63
2023-02-28T17:39:29.153Z,53.57
2023-02-28T17:44:32.718Z,53.68
2023-02-28T17:49:36.327Z,54.17
2023-02-28T17:54:40.045Z,54.40
2023-02-28T17:59:44.384Z,54.54
2023-02-28T18:04:47.813Z,55.04
2023-02-28T18:09:51.415Z,55.13
2023-02-28T18:14:55.256Z,55.55
2023-02-28T18:19:59.883Z,55.90
2023-02-28T18:25:09.383Z,55.86
2023-02-28T18:30:13.486Z,56.50
2023-02-28T18:35:18.025Z,56.48
2023-02-28T18:40:21.939Z,56.54
2023-02-28T18:45:26.052Z,57.08
2023-02-28T18:50:29.914Z,56.93
2023-02-28T18:55:34.414Z,56.96
2023-02-28T19:00:38.426Z,57.00
2023-02-28T19:05:42.160Z,57.22
2023-02-28T19:10:45.778Z,57.37
2023-02-28T19:15:49.290Z,57.57
2023-02-28T19:20:52.912Z,57.81
2023-02-28T19:25:56.934Z,58.26
2023-02-28T19:31:08.133Z,58.19
2023-02-28T19:36:12.886Z,58.43
2023-02-28T19:41:17.736Z,58.78
2023-02-28T19:46:21.140Z,58.91
2023-02-28T19:51:24.859Z,58.98
2023-02-28T19:56:28.674Z,59.22
2023-02-28T20:01:32.407Z,59.57
2023-02-28T20:06:36.531Z,59.46
2023-02-28T20:11:41.486Z,59.89
2023-02-28T20:16:46.281Z,60.22
2023-02-28T20:21:49.742Z,60.38
2023-02-28T20:26:54.081Z,60.56
2023-02-28T20:31:58.157Z,60.49
2023-02-28T20:37:01.622Z,61.10
2023-02-28T20:42:05.549Z,61.62
2023-02-28T20:47:08.957Z,61.54
2023-02-28T20:52:13.109Z,61.85
2023-02-28T20:57:16.505Z,61.84
2023-02-28T21:02:21.587Z,62.42
2023-02-28T21:07:28.865Z,62.67
2023-02-28T21:12:41.943Z,62.98
2023-02-28T21:17:48.389Z,63.16
2023-02-28T21:22:53.202Z,63.54
2023-02-28T21:27:57.801Z,63.79
2023-02-28T21:33:03.542Z,64.17
2023-02-28T21:38:07.065Z,64.07
2023-02-28T21:43:10.672Z,64.39
2023-02-28T21:48:14.216Z,64.45
2023-02-28T21:53:17.806Z,64.61
2023-02-28T21:58:21.631Z,64.72
2023-02-28T22:03:25.245Z,64.74
2023-02-28T22:08:28.760Z,64.90
2023-02-28T22:13:32.992Z,65.14
2023-02-28T22:18:37.238Z,65.54
2023-02-28T22:23:42.189Z,65.53
2023-02-28T22:28:45.690Z,65.44
2023-02-28T22:33:51.100Z,65.28
2023-02-28T22:38:55.176Z,65.46
2023-02-28T22:44:01.173Z,65.58
2023-02-28T22:49:06.020Z,65.56
2023-02-28T22:54:09.924Z,65.63
2023-02-28T22:59:15.114Z,65.74
2023-02-28T23:04:19.826Z,65.52
2023-02-28T23:09:23.541Z,65.48
2023-02-28T23:14:26.947Z,65.44
2023-02-28T23:19:32.717Z,65.52
2023-02-28T23:24:37.562Z,65.75
2023-02-28T23:29:41.079Z,65.47
2023-02-28T23:34:45.007Z,65.43
2023-02-28T23:39:48.619Z,65.61
2023-02-28T23:44:52.042Z,65.71
2023-02-28T23:49:55.546Z,65.87
2023-02-28T23:55:01.111Z,65.91
